Time;durP1;ratioP1;P1;durP2;ratioP2;P2;SDS_P1;SDS_P2;PMS_P1;PMS_P2;Temp;Humidity;BMP_temperature;BMP_pressure;BME280_temperature;BME280_humidity;BME280_pressure;Samples;Min_cycle;Max_cycle;Signal;HPM_P1;HPM_P2
2022/03/07 00:02:00;;;;;;;13.55;9.77;;;2.10;35.00;;;;;;5031659;28;20290;-62
2022/03/07 00:04:27;;;;;;;12.38;11.00;;;2.00;35.20;;;;;;5013704;28;20195;-63
2022/03/07 00:06:54;;;;;;;12.25;9.27;;;1.90;35.70;;;;;;5011728;28;20530;-63
2022/03/07 00:09:21;;;;;;;13.73;9.32;;;1.90;36.20;;;;;;5030875;28;20257;-62
2022/03/07 00:11:48;;;;;;;15.25;12.52;;;1.90;36.40;;;;;;5035653;28;20227;-64
2022/03/07 00:14:16;;;;;;;19.10;12.20;;;1.80;36.30;;;;;;5020461;28;20303;-64
2022/03/07 00:16:43;;;;;;;17.73;10.95;;;1.80;36.20;;;;;;5015806;28;20626;-62
2022/03/07 00:19:11;;;;;;;13.60;10.10;;;1.80;36.40;;;;;;5028493;28;20537;-63
2022/03/07 00:21:39;;;;;;;19.60;15.05;;;1.70;36.40;;;;;;5035546;28;20195;-62
2022/03/07 00:24:07;;;;;;;15.30;11.45;;;1.70;36.40;;;;;;5016305;28;20215;-63
2022/03/07 00:26:34;;;;;;;16.70;10.23;;;1.70;36.20;;;;;;5016356;28;20200;-62
2022/03/07 00:29:02;;;;;;;12.82;10.98;;;1.60;36.30;;;;;;5034838;28;20187;-62
2022/03/07 00:31:29;;;;;;;12.85;10.35;;;1.60;36.60;;;;;;5019191;28;20191;-62
2022/03/07 00:33:56;;;;;;;13.68;10.48;;;1.50;37.00;;;;;;5015402;28;20219;-62
2022/03/07 00:36:25;;;;;;;14.02;9.85;;;1.50;37.10;;;;;;5028892;28;20226;-63
2022/03/07 00:38:53;;;;;;;11.65;9.00;;;1.40;37.00;;;;;;5035182;28;20195;-62
2022/03/07 00:41:20;;;;;;;12.40;9.10;;;1.40;37.10;;;;;;5021837;28;20191;-62
2022/03/07 00:43:47;;;;;;;15.77;9.00;;;1.40;37.10;;;;;;5015285;28;20215;-62
2022/03/07 00:46:14;;;;;;;14.18;9.80;;;1.40;37.10;;;;;;5026091;28;20202;-62
2022/03/07 00:48:41;;;;;;;12.07;9.23;;;1.30;37.20;;;;;;5034731;28;20198;-65
2022/03/07 00:51:09;;;;;;;12.30;9.50;;;1.30;37.50;;;;;;5024660;28;20552;-62
2022/03/07 00:53:37;;;;;;;12.70;9.10;;;1.30;37.50;;;;;;5015015;28;20562;-62
2022/03/07 00:56:07;;;;;;;12.20;9.63;;;1.30;37.30;;;;;;5022962;28;20191;-62
2022/03/07 00:58:34;;;;;;;10.50;8.40;;;1.30;37.30;;;;;;5034780;28;20183;-62
2022/03/07 01:01:01;;;;;;;15.40;9.73;;;1.20;37.30;;;;;;5026637;28;20199;-63
2022/03/07 01:03:28;;;;;;;10.60;8.82;;;1.20;37.40;;;;;;5015022;28;20211;-63
2022/03/07 01:05:55;;;;;;;12.38;9.77;;;1.20;37.60;;;;;;5030680;28;20202;-63
2022/03/07 01:08:23;;;;;;;16.63;11.07;;;1.20;37.60;;;;;;5034718;28;20195;-63
2022/03/07 01:10:52;;;;;;;13.40;10.50;;;1.10;37.70;;;;;;5018359;28;20282;-63
2022/03/07 01:13:22;;;;;;;11.98;8.65;;;1.10;37.70;;;;;;5014706;28;20199;-63
2022/03/07 01:15:49;;;;;;;13.70;9.23;;;1.10;37.90;;;;;;5029421;28;20582;-62
2022/03/07 01:18:17;;;;;;;14.88;10.00;;;1.10;38.30;;;;;;5034184;28;20214;-63
2022/03/07 01:20:44;;;;;;;17.13;9.70;;;1.00;38.30;;;;;;5019289;28;20196;-64
2022/03/07 01:23:12;;;;;;;13.18;9.30;;;0.90;38.50;;;;;;5014574;28;20195;-63
2022/03/07 01:25:39;;;;;;;15.48;10.93;;;0.90;38.70;;;;;;5026206;28;20278;-63
2022/03/07 01:28:07;;;;;;;11.60;8.65;;;0.80;38.60;;;;;;5034363;28;20241;-63
2022/03/07 01:30:34;;;;;;;13.32;10.55;;;0.80;38.60;;;;;;5022991;28;20714;-63
2022/03/07 01:33:02;;;;;;;13.27;9.77;;;0.70;38.50;;;;;;5018680;28;20266;-63
2022/03/07 01:35:29;;;;;;;16.50;11.23;;;0.70;38.70;;;;;;5033912;28;20318;-63
2022/03/07 01:37:56;;;;;;;12.40;9.68;;;0.70;38.90;;;;;;5029937;28;20614;-62
2022/03/07 01:40:23;;;;;;;13.88;10.20;;;0.70;39.00;;;;;;5014453;28;20188;-63
2022/03/07 01:42:50;;;;;;;12.70;9.20;;;0.70;39.10;;;;;;5015785;28;20650;-63
2022/03/07 01:45:20;;;;;;;12.55;9.85;;;0.70;38.80;;;;;;5034114;28;20594;-63
2022/03/07 01:47:48;;;;;;;13.32;9.88;;;0.70;38.90;;;;;;5032883;28;20648;-63
2022/03/07 01:50:17;;;;;;;15.65;10.90;;;0.60;39.50;;;;;;5014152;28;20591;-63
2022/03/07 01:52:47;;;;;;;14.85;9.50;;;0.60;38.90;;;;;;5024315;28;20191;-62
2022/03/07 01:55:16;;;;;;;13.60;11.70;;;0.60;39.10;;;;;;5033849;28;20199;-62
2022/03/07 01:57:45;;;;;;;14.93;10.13;;;0.50;39.20;;;;;;5023294;28;20607;-62
2022/03/07 02:00:16;;;;;;;13.82;9.98;;;0.50;39.30;;;;;;5013785;28;20223;-62
2022/03/07 02:02:45;;;;;;;13.15;8.63;;;0.40;39.30;;;;;;5022613;28;20187;-62
2022/03/07 02:05:12;;;;;;;14.60;9.50;;;0.40;39.30;;;;;;5033098;28;20191;-62
2022/03/07 02:07:40;;;;;;;10.65;9.25;;;0.40;39.30;;;;;;5019759;28;20665;-62
2022/03/07 02:10:09;;;;;;;11.60;9.70;;;0.40;39.30;;;;;;5013854;28;20540;-62
2022/03/07 02:12:37;;;;;;;11.10;8.52;;;0.40;39.30;;;;;;5024958;28;20266;-62
2022/03/07 02:15:05;;;;;;;19.70;10.07;;;0.30;39.30;;;;;;5033467;28;20231;-62
2022/03/07 02:17:32;;;;;;;13.30;9.93;;;0.30;39.10;;;;;;5021856;28;20223;-62
2022/03/07 02:20:01;;;;;;;11.57;9.23;;;0.20;39.10;;;;;;5013304;28;20196;-62
2022/03/07 02:22:29;;;;;;;12.50;9.57;;;0.10;39.10;;;;;;5022302;28;20187;-62
2022/03/07 02:24:56;;;;;;;14.73;9.82;;;0.10;39.20;;;;;;5033157;28;20194;-62
2022/03/07 02:27:24;;;;;;;16.45;10.68;;;0.00;39.30;;;;;;5031138;28;20179;-63
2022/03/07 02:29:51;;;;;;;15.00;10.43;;;0.00;39.30;;;;;;5032886;28;20721;-63
2022/03/07 02:32:18;;;;;;;16.35;11.07;;;-0.10;39.50;;;;;;5025159;28;20216;-62
2022/03/07 02:34:45;;;;;;;14.70;8.90;;;-0.10;39.60;;;;;;5013016;28;20647;-62
2022/03/07 02:37:12;;;;;;;18.08;10.07;;;-0.10;39.80;;;;;;5018432;28;20210;-62
2022/03/07 02:39:41;;;;;;;15.73;12.10;;;-0.10;40.00;;;;;;5032690;28;20227;-62
2022/03/07 02:42:08;;;;;;;14.48;10.80;;;-0.10;41.00;;;;;;5017439;28;20188;-62
2022/03/07 02:44:35;;;;;;;18.15;10.15;;;-0.10;40.50;;;;;;5013068;28;20196;-62
2022/03/07 02:47:02;;;;;;;16.20;10.75;;;-0.10;40.70;;;;;;5026188;28;20230;-62
2022/03/07 02:49:30;;;;;;;13.05;9.63;;;-0.10;41.10;;;;;;5032678;28;20274;-62
2022/03/07 02:51:57;;;;;;;12.23;8.77;;;-0.10;41.30;;;;;;5019809;28;20216;-62
2022/03/07 02:54:24;;;;;;;17.73;11.00;;;-0.10;41.20;;;;;;5012782;28;20229;-62
2022/03/07 02:56:53;;;;;;;14.10;9.93;;;-0.10;41.30;;;;;;5030766;28;20213;-62
2022/03/07 02:59:20;;;;;;;11.65;9.00;;;-0.10;41.50;;;;;;5032420;28;20244;-62
2022/03/07 03:01:48;;;;;;;14.70;10.27;;;-0.10;41.60;;;;;;5015020;28;20237;-62
2022/03/07 03:04:15;;;;;;;13.75;9.90;;;-0.10;41.70;;;;;;5013520;28;20198;-62
2022/03/07 03:06:43;;;;;;;14.82;10.70;;;-0.10;41.70;;;;;;5032150;28;20653;-65
2022/03/07 03:09:10;;;;;;;12.60;11.10;;;-0.10;41.80;;;;;;5031995;28;20191;-62
2022/03/07 03:11:37;;;;;;;14.35;10.80;;;-0.20;41.70;;;;;;5012513;28;20639;-62
2022/03/07 03:14:06;;;;;;;15.52;10.63;;;-0.20;41.80;;;;;;5012570;28;20278;-62
2022/03/07 03:16:33;;;;;;;14.57;11.20;;;-0.20;41.90;;;;;;5031020;28;20183;-62
2022/03/07 03:19:01;;;;;;;13.45;10.82;;;-0.20;42.10;;;;;;5032189;28;20265;-62
2022/03/07 03:21:28;;;;;;;18.08;11.48;;;-0.20;42.10;;;;;;5014047;28;20219;-62
2022/03/07 03:23:55;;;;;;;17.70;10.63;;;-0.20;42.40;;;;;;5011999;28;20195;-63
2022/03/07 03:26:22;;;;;;;13.70;11.23;;;-0.20;42.20;;;;;;5023068;28;20234;-62
2022/03/07 03:28:49;;;;;;;16.50;10.93;;;-0.10;42.20;;;;;;5012067;28;20223;-62
2022/03/07 03:31:17;;;;;;;12.55;10.30;;;-0.20;42.00;;;;;;5012418;28;20187;-62
2022/03/07 03:33:44;;;;;;;12.98;10.70;;;-0.20;42.20;;;;;;5029543;28;20657;-62
2022/03/07 03:36:12;;;;;;;14.63;10.75;;;-0.30;42.60;;;;;;5031824;28;20197;-62
2022/03/07 03:38:39;;;;;;;15.00;10.55;;;-0.20;42.70;;;;;;5015351;28;20219;-62
2022/03/07 03:41:06;;;;;;;16.70;11.25;;;-0.20;43.10;;;;;;5012127;28;20265;-62
2022/03/07 03:43:33;;;;;;;16.27;10.13;;;-0.20;43.50;;;;;;5017391;28;20187;-62
2022/03/07 03:46:00;;;;;;;14.95;11.10;;;-0.20;43.50;;;;;;5018570;28;20305;-62
2022/03/07 03:48:29;;;;;;;16.50;10.27;;;-0.20;43.50;;;;;;5033860;28;20222;-62
2022/03/07 03:50:56;;;;;;;15.32;11.23;;;-0.20;43.50;;;;;;5038517;28;20646;-62
2022/03/07 03:53:23;;;;;;;18.13;10.85;;;-0.20;43.60;;;;;;5023576;28;20202;-62
2022/03/07 03:55:50;;;;;;;17.50;9.55;;;-0.20;43.80;;;;;;5018382;28;20230;-63
2022/03/07 03:58:17;;;;;;;16.58;10.35;;;-0.30;43.60;;;;;;5031330;28;20640;-62
2022/03/07 04:00:44;;;;;;;13.70;11.05;;;-0.30;43.40;;;;;;5038520;28;20191;-62
2022/03/07 04:03:11;;;;;;;13.90;10.00;;;-0.30;43.20;;;;;;5026572;28;20192;-63
2022/03/07 04:05:40;;;;;;;15.65;10.85;;;-0.30;43.20;;;;;;5018847;28;20239;-62
2022/03/07 04:08:07;;;;;;;16.67;10.30;;;-0.30;43.30;;;;;;5028977;28;20201;-62
2022/03/07 04:10:34;;;;;;;17.98;11.32;;;-0.20;43.60;;;;;;5036324;28;20298;-62
2022/03/07 04:13:01;;;;;;;13.75;9.70;;;-0.20;43.60;;;;;;5019052;28;20524;-62
2022/03/07 04:15:28;;;;;;;13.68;9.82;;;-0.20;43.50;;;;;;5032718;28;20218;-62
2022/03/07 04:17:55;;;;;;;14.32;11.48;;;-0.30;44.10;;;;;;5038579;28;20237;-62
2022/03/07 04:20:23;;;;;;;15.00;10.35;;;-0.30;44.30;;;;;;5025079;28;20191;-64
2022/03/07 04:22:52;;;;;;;14.10;9.88;;;-0.30;44.50;;;;;;5018795;28;20258;-63
2022/03/07 04:25:19;;;;;;;17.08;11.48;;;-0.30;44.60;;;;;;5030351;28;20281;-63
2022/03/07 04:27:47;;;;;;;14.85;10.38;;;-0.30;44.70;;;;;;5038318;28;20658;-63
2022/03/07 04:30:14;;;;;;;15.90;11.18;;;-0.30;45.20;;;;;;5027152;28;20274;-63
2022/03/07 04:32:41;;;;;;;15.07;10.82;;;-0.30;45.20;;;;;;5018313;28;20198;-63
2022/03/07 04:35:11;;;;;;;17.23;11.93;;;-0.40;45.40;;;;;;5028015;28;20237;-63
2022/03/07 04:37:40;;;;;;;17.27;12.35;;;-0.30;45.50;;;;;;5037629;28;20309;-63
2022/03/07 04:40:10;;;;;;;17.02;11.55;;;-0.30;45.80;;;;;;5018723;28;20200;-63
2022/03/07 04:42:37;;;;;;;20.63;14.00;;;-0.30;45.80;;;;;;5018923;28;20188;-65
2022/03/07 04:45:05;;;;;;;23.10;14.73;;;-0.30;45.50;;;;;;5037958;28;20195;-62
2022/03/07 04:47:32;;;;;;;17.88;12.80;;;-0.30;45.50;;;;;;5029540;28;20550;-62
2022/03/07 04:50:00;;;;;;;17.90;12.25;;;-0.20;45.80;;;;;;5018430;28;20306;-63
2022/03/07 04:52:27;;;;;;;15.15;11.30;;;-0.20;45.80;;;;;;5025118;28;20187;-63
2022/03/07 04:54:54;;;;;;;18.40;12.43;;;-0.20;45.90;;;;;;5036269;28;20668;-63
2022/03/07 04:57:23;;;;;;;15.68;11.95;;;-0.20;45.80;;;;;;5028673;28;20223;-63
2022/03/07 04:59:50;;;;;;;18.08;11.90;;;-0.10;45.80;;;;;;5015303;28;20199;-63
2022/03/07 05:02:17;;;;;;;13.40;12.00;;;-0.20;45.60;;;;;;5019626;28;20645;-63
2022/03/07 05:04:44;;;;;;;19.83;12.88;;;-0.20;45.90;;;;;;5035075;28;20219;-65
2022/03/07 05:07:11;;;;;;;16.55;12.15;;;-0.20;46.10;;;;;;5019187;28;20184;-62
2022/03/07 05:09:39;;;;;;;18.75;12.60;;;-0.30;46.10;;;;;;5015243;28;20197;-63
2022/03/07 05:12:07;;;;;;;13.68;10.35;;;-0.30;46.50;;;;;;5028722;28;20281;-63
2022/03/07 05:14:35;;;;;;;18.77;13.57;;;-0.20;46.90;;;;;;5034482;28;20246;-62
2022/03/07 05:17:03;;;;;;;14.88;10.80;;;-0.20;47.00;;;;;;5016822;28;20192;-63
2022/03/07 05:19:30;;;;;;;16.30;11.57;;;-0.20;47.20;;;;;;5014828;28;20223;-62
2022/03/07 05:21:59;;;;;;;14.00;11.05;;;-0.20;47.10;;;;;;5030179;28;20270;-63
2022/03/07 05:24:26;;;;;;;19.63;12.00;;;-0.20;46.80;;;;;;5034429;28;20198;-63
2022/03/07 05:26:54;;;;;;;16.17;11.07;;;-0.10;46.60;;;;;;5014783;28;20601;-63
2022/03/07 05:29:21;;;;;;;15.45;11.45;;;-0.10;46.80;;;;;;5014812;28;20199;-63
2022/03/07 05:31:49;;;;;;;16.67;12.15;;;-0.10;47.30;;;;;;5032808;28;20187;-63
2022/03/07 05:34:17;;;;;;;13.93;10.63;;;-0.10;47.30;;;;;;5034523;28;20531;-62
2022/03/07 05:36:44;;;;;;;13.23;10.45;;;-0.10;47.10;;;;;;5016153;28;20227;-63
2022/03/07 05:39:11;;;;;;;16.65;12.18;;;-0.10;47.50;;;;;;5017223;28;20261;-64
2022/03/07 05:41:39;;;;;;;16.90;12.55;;;-0.10;47.50;;;;;;5034215;28;20673;-63
2022/03/07 05:44:06;;;;;;;19.60;13.30;;;-0.10;47.40;;;;;;5032436;28;20187;-62
2022/03/07 05:46:33;;;;;;;20.23;13.77;;;0.00;47.60;;;;;;5014389;28;20301;-63
2022/03/07 05:49:02;;;;;;;18.00;13.00;;;0.00;47.50;;;;;;5014387;28;20207;-63
2022/03/07 05:51:31;;;;;;;18.63;12.35;;;0.00;47.60;;;;;;5034097;28;20195;-62
2022/03/07 05:53:58;;;;;;;16.60;12.13;;;-0.10;47.80;;;;;;5034233;28;20546;-68
2022/03/07 05:56:25;;;;;;;16.88;12.50;;;-0.10;47.80;;;;;;5033520;28;20677;-63
2022/03/07 05:58:52;;;;;;;16.95;11.50;;;-0.10;48.00;;;;;;5032193;28;20219;-62
2022/03/07 06:01:19;;;;;;;16.10;11.25;;;-0.10;48.10;;;;;;5034060;28;20202;-63
2022/03/07 06:03:46;;;;;;;19.17;13.68;;;-0.10;48.10;;;;;;5032689;28;20631;-63
2022/03/07 06:06:14;;;;;;;16.60;11.40;;;-0.10;48.10;;;;;;5014860;28;20631;-62
2022/03/07 06:08:42;;;;;;;16.77;11.50;;;0.00;48.30;;;;;;5018367;28;20191;-63
2022/03/07 06:11:09;;;;;;;17.08;12.40;;;-0.10;48.50;;;;;;5033730;28;20225;-63
2022/03/07 06:13:36;;;;;;;14.85;11.75;;;0.00;48.70;;;;;;5030112;28;20184;-63
2022/03/07 06:16:04;;;;;;;22.80;16.52;;;0.00;48.80;;;;;;5014067;28;20224;-62
2022/03/07 06:18:31;;;;;;;25.83;17.83;;;0.00;49.10;;;;;;5033404;28;20218;-62
2022/03/07 06:20:58;;;;;;;24.77;17.90;;;0.10;49.20;;;;;;5033395;28;20227;-64
2022/03/07 06:23:27;;;;;;;19.45;14.65;;;0.10;49.50;;;;;;5033355;28;20198;-63
2022/03/07 06:25:54;;;;;;;20.25;13.63;;;0.20;49.60;;;;;;5033592;28;20198;-63
2022/03/07 06:28:21;;;;;;;21.45;14.77;;;0.30;49.80;;;;;;5014584;28;20295;-63
2022/03/07 06:30:49;;;;;;;20.60;14.20;;;0.30;49.80;;;;;;5020718;28;20249;-63
2022/03/07 06:33:17;;;;;;;21.58;14.38;;;0.40;50.00;;;;;;5027671;28;20642;-63
2022/03/07 06:35:44;;;;;;;22.92;14.70;;;0.50;50.00;;;;;;5030727;28;20195;-64
2022/03/07 06:38:11;;;;;;;21.98;14.57;;;0.50;50.00;;;;;;5031467;28;20565;-63
2022/03/07 06:40:40;;;;;;;18.60;13.85;;;0.60;50.00;;;;;;5027020;28;20583;-64
2022/03/07 06:43:07;;;;;;;23.48;15.70;;;0.70;50.20;;;;;;5031245;28;20187;-63
2022/03/07 06:45:34;;;;;;;24.95;12.85;;;0.90;50.40;;;;;;5028451;28;20272;-62
2022/03/07 06:48:02;;;;;;;17.55;12.98;;;1.10;50.60;;;;;;5031374;28;20191;-62
2022/03/07 06:50:29;;;;;;;19.55;14.57;;;1.30;50.10;;;;;;5026280;28;20195;-64
2022/03/07 06:52:57;;;;;;;18.02;13.15;;;1.40;49.50;;;;;;5027086;28;20725;-63
2022/03/07 06:55:24;;;;;;;18.45;13.13;;;1.70;49.40;;;;;;5030433;28;20856;-62
2022/03/07 06:57:53;;;;;;;17.08;14.40;;;2.00;49.00;;;;;;5031317;28;20199;-63
2022/03/07 07:00:20;;;;;;;20.88;13.55;;;2.40;48.50;;;;;;5029778;28;20195;-63
2022/03/07 07:02:48;;;;;;;16.50;12.45;;;2.60;47.40;;;;;;5031347;28;20187;-63
2022/03/07 07:05:16;;;;;;;15.77;12.68;;;2.80;46.60;;;;;;5030576;28;20199;-63
2022/03/07 07:07:43;;;;;;;20.25;13.32;;;2.80;46.00;;;;;;5031114;28;20219;-64
2022/03/07 07:10:11;;;;;;;19.83;13.30;;;2.80;45.50;;;;;;5029043;28;20194;-63
2022/03/07 07:12:39;;;;;;;14.13;12.30;;;2.80;45.10;;;;;;5026385;28;20190;-63
2022/03/07 07:15:08;;;;;;;16.10;11.88;;;2.80;44.70;;;;;;5024304;28;20229;-63
2022/03/07 07:17:36;;;;;;;19.90;13.32;;;2.80;44.60;;;;;;5029461;28;20560;-64
2022/03/07 07:20:04;;;;;;;20.10;13.88;;;2.80;44.50;;;;;;5024049;28;20218;-64
2022/03/07 07:22:31;;;;;;;17.40;12.90;;;2.90;44.60;;;;;;5029391;28;20202;-63
2022/03/07 07:24:58;;;;;;;18.35;13.70;;;2.90;44.20;;;;;;5028371;28;20191;-63
2022/03/07 07:27:25;;;;;;;20.50;13.27;;;2.90;43.80;;;;;;5024493;28;20549;-63
2022/03/07 07:29:52;;;;;;;20.60;13.80;;;3.00;43.90;;;;;;5030203;28;20190;-63
2022/03/07 07:32:21;;;;;;;16.85;11.45;;;3.10;44.20;;;;;;5030012;28;20194;-67
2022/03/07 07:34:48;;;;;;;15.65;13.32;;;3.20;43.80;;;;;;5029803;28;20249;-63
2022/03/07 07:37:16;;;;;;;17.38;13.48;;;3.30;42.70;;;;;;5029006;28;20198;-63
2022/03/07 07:39:43;;;;;;;17.55;12.38;;;3.50;42.40;;;;;;5030345;28;20214;-63
2022/03/07 07:42:11;;;;;;;16.10;12.10;;;3.70;42.50;;;;;;5027316;28;20245;-63
2022/03/07 07:44:38;;;;;;;17.35;13.88;;;4.00;41.70;;;;;;5029809;28;20650;-65
2022/03/07 07:47:07;;;;;;;16.25;11.40;;;4.50;42.30;;;;;;5025643;28;20198;-64
2022/03/07 07:49:36;;;;;;;16.70;12.02;;;6.20;38.80;;;;;;5029071;28;20191;-64
2022/03/07 07:52:03;;;;;;;15.30;11.48;;;8.30;35.80;;;;;;5030759;28;20187;-69
2022/03/07 07:54:31;;;;;;;15.35;11.95;;;10.50;32.30;;;;;;5025829;28;20187;-64
2022/03/07 07:56:58;;;;;;;16.85;12.57;;;12.40;28.60;;;;;;5025515;28;20234;-64
2022/03/07 07:59:26;;;;;;;12.73;11.43;;;13.90;24.70;;;;;;5025026;28;20219;-64
2022/03/07 08:01:53;;;;;;;16.50;13.48;;;15.00;23.80;;;;;;5024206;28;20187;-66
2022/03/07 08:04:20;;;;;;;15.32;13.70;;;15.80;22.30;;;;;;5025467;28;20198;-65
2022/03/07 08:06:48;;;;;;;14.48;12.98;;;15.50;20.70;;;;;;5027441;28;20229;-64
2022/03/07 08:09:16;;;;;;;16.00;12.60;;;15.10;21.40;;;;;;5030130;28;20201;-64
2022/03/07 08:11:43;;;;;;;13.75;11.90;;;14.30;20.50;;;;;;5029320;28;20588;-66
2022/03/07 08:14:10;;;;;;;14.73;12.93;;;13.90;22.40;;;;;;5027713;28;20218;-64
2022/03/07 08:16:37;;;;;;;14.43;12.93;;;15.10;22.50;;;;;;5030545;28;20207;-64
2022/03/07 08:19:04;;;;;;;14.50;13.02;;;16.60;22.50;;;;;;5029713;28;20215;-64
2022/03/07 08:21:32;;;;;;;15.85;14.25;;;18.30;21.00;;;;;;5026132;28;20447;-65
2022/03/07 08:24:01;;;;;;;16.40;13.20;;;18.80;17.90;;;;;;5030280;28;21012;-64
2022/03/07 08:26:28;;;;;;;15.80;14.20;;;19.40;17.50;;;;;;5029654;28;20980;-64
2022/03/07 08:28:55;;;;;;;15.20;13.70;;;19.90;16.60;;;;;;5029870;28;20188;-64
2022/03/07 08:31:22;;;;;;;13.27;11.97;;;19.50;17.10;;;;;;5032918;28;20450;-64
2022/03/07 08:33:49;;;;;;;15.00;13.30;;;20.00;16.20;;;;;;5033993;28;20854;-65
2022/03/07 08:36:16;;;;;;;15.87;14.37;;;19.50;15.20;;;;;;5032647;28;20443;-64
2022/03/07 08:38:44;;;;;;;14.87;13.33;;;19.00;16.50;;;;;;5032942;28;20525;-64
2022/03/07 08:41:12;;;;;;;15.03;13.53;;;18.60;15.40;;;;;;5033344;28;20441;-64
2022/03/07 08:43:40;;;;;;;14.93;13.53;;;18.60;16.90;;;;;;5033062;28;20475;-64
2022/03/07 08:46:07;;;;;;;15.13;13.70;;;19.20;16.20;;;;;;5033572;28;20791;-64
2022/03/07 08:48:34;;;;;;;14.83;13.30;;;18.90;15.60;;;;;;5032832;28;20769;-65
2022/03/07 08:51:02;;;;;;;15.27;13.77;;;18.30;15.90;;;;;;5028330;28;20471;-64
2022/03/07 08:53:29;;;;;;;13.60;12.20;;;18.60;16.30;;;;;;5032761;28;20438;-64
2022/03/07 08:55:56;;;;;;;16.10;14.10;;;18.50;15.70;;;;;;5033390;28;20774;-64
2022/03/07 08:58:24;;;;;;;14.97;13.57;;;18.60;17.90;;;;;;5032446;28;20438;-66
2022/03/07 09:00:52;;;;;;;15.23;13.07;;;20.10;19.20;;;;;;5029760;28;20448;-64
2022/03/07 09:03:19;;;;;;;14.50;13.20;;;21.30;16.40;;;;;;5033040;28;21015;-64
2022/03/07 09:05:46;;;;;;;14.80;13.50;;;22.50;14.80;;;;;;5032135;28;20443;-65
2022/03/07 09:08:13;;;;;;;15.60;14.10;;;23.90;13.60;;;;;;5032772;28;20437;-65
2022/03/07 09:10:40;;;;;;;13.80;12.57;;;25.30;14.30;;;;;;5032267;28;20928;-65
2022/03/07 09:13:08;;;;;;;15.73;14.23;;;26.50;11.70;;;;;;5032437;28;20888;-66
2022/03/07 09:15:36;;;;;;;13.60;12.20;;;27.30;12.00;;;;;;5027948;28;20475;-65
2022/03/07 09:18:03;;;;;;;14.80;12.70;;;28.30;10.90;;;;;;5027714;28;20441;-65
2022/03/07 09:20:31;;;;;;;13.97;12.70;;;28.30;9.70;;;;;;5032990;28;20485;-65
2022/03/07 09:22:58;;;;;;;12.73;11.53;;;28.50;11.40;;;;;;5031931;28;20950;-65
2022/03/07 09:25:25;;;;;;;12.60;11.40;;;29.50;9.90;;;;;;5033108;28;20438;-67
2022/03/07 09:27:52;;;;;;;14.00;12.70;;;29.10;9.10;;;;;;5031940;28;20483;-65
2022/03/07 09:30:19;;;;;;;14.00;12.70;;;29.30;8.70;;;;;;5032916;28;20441;-65
2022/03/07 09:32:48;;;;;;;14.20;12.87;;;29.80;9.20;;;;;;5032369;28;20471;-62
2022/03/07 09:35:15;;;;;;;15.27;12.73;;;29.90;8.70;;;;;;5029117;28;20442;-63
2022/03/07 09:37:42;;;;;;;13.23;11.93;;;29.60;8.50;;;;;;5031427;28;20444;-63
2022/03/07 09:40:10;;;;;;;14.63;13.37;;;28.80;8.60;;;;;;5032105;28;20492;-62
2022/03/07 09:42:37;;;;;;;14.57;13.17;;;28.10;8.10;;;;;;5031519;28;20442;-63
2022/03/07 09:45:05;;;;;;;14.90;13.00;;;26.80;8.40;;;;;;5025248;28;20445;-63
2022/03/07 09:47:33;;;;;;;14.40;13.03;;;25.20;8.80;;;;;;5031079;28;20437;-62
2022/03/07 09:50:01;;;;;;;17.10;13.70;;;23.30;9.10;;;;;;5031735;28;20532;-62
2022/03/07 09:52:29;;;;;;;13.83;12.53;;;22.20;11.00;;;;;;5031527;28;20446;-62
2022/03/07 09:54:56;;;;;;;14.83;13.43;;;22.70;12.20;;;;;;5030940;28;20464;-63
2022/03/07 09:57:23;;;;;;;15.20;13.77;;;24.30;11.70;;;;;;5029256;28;20433;-64
2022/03/07 09:59:50;;;;;;;16.67;14.97;;;26.50;11.40;;;;;;5025941;28;21047;-63
2022/03/07 10:02:22;;;;;;;13.80;12.40;;;28.60;10.00;;;;;;5032136;28;20442;-62
2022/03/07 10:04:49;;;;;;;14.67;13.33;;;28.50;8.10;;;;;;5032079;28;20434;-63
2022/03/07 10:07:18;;;;;;;14.90;13.60;;;26.60;8.90;;;;;;5030003;28;20438;-62
2022/03/07 10:09:46;;;;;;;14.93;13.53;;;25.80;8.60;;;;;;5030305;28;20445;-62
2022/03/07 10:12:14;;;;;;;16.80;15.10;;;24.10;8.60;;;;;;5032353;28;20829;-64
2022/03/07 10:14:44;;;;;;;15.60;14.00;;;22.70;10.30;;;;;;5022250;28;20513;-63
2022/03/07 10:17:23;;;;;;;13.90;12.17;;;23.90;11.00;;;;;;5024513;28;20445;-63
2022/03/07 10:19:50;;;;;;;16.30;14.60;;;26.20;10.50;;;;;;5023626;28;20477;-62
2022/03/07 10:22:22;;;;;;;15.20;13.77;;;25.60;8.80;;;;;;5026556;28;20438;-62
2022/03/07 10:24:59;;;;;;;13.90;12.60;;;26.40;10.30;;;;;;5025589;28;20446;-62
2022/03/07 10:27:27;;;;;;;13.70;12.40;;;28.60;10.00;;;;;;5025224;28;20446;-62
2022/03/07 10:29:54;;;;;;;13.97;12.77;;;30.70;9.20;;;;;;5019827;28;20433;-64
2022/03/07 10:32:21;;;;;;;15.37;13.93;;;32.20;8.70;;;;;;5026720;28;20448;-63
2022/03/07 10:34:49;;;;;;;13.70;12.50;;;33.30;6.50;;;;;;5025424;28;20811;-62
2022/03/07 10:37:16;;;;;;;15.10;13.73;;;30.90;5.60;;;;;;5025858;28;20446;-62
2022/03/07 10:39:52;;;;;;;14.20;12.90;;;28.90;6.70;;;;;;5025269;28;20496;-63
2022/03/07 10:42:21;;;;;;;14.93;13.57;;;29.70;8.10;;;;;;5022322;28;20444;-62
2022/03/07 10:44:48;;;;;;;14.00;12.80;;;31.30;7.40;;;;;;5025629;28;20449;-63
2022/03/07 10:47:18;;;;;;;14.30;13.07;;;32.60;6.90;;;;;;5026520;28;20783;-63
2022/03/07 10:49:51;;;;;;;13.00;11.80;;;33.60;6.50;;;;;;5026248;28;20441;-64
2022/03/07 10:52:19;;;;;;;15.17;13.77;;;34.40;5.90;;;;;;5025527;28;20446;-63
2022/03/07 10:54:47;;;;;;;16.27;14.77;;;32.60;4.70;;;;;;5024210;28;20441;-63
2022/03/07 10:57:17;;;;;;;15.00;13.60;;;30.00;5.60;;;;;;5027022;28;20458;-63
2022/03/07 10:59:45;;;;;;;16.00;14.13;;;27.30;6.30;;;;;;5027280;28;20527;-65
2022/03/07 11:02:16;;;;;;;15.70;14.03;;;25.40;7.20;;;;;;5024419;28;20465;-64
2022/03/07 11:04:45;;;;;;;14.33;12.97;;;23.50;7.70;;;;;;5024508;28;20433;-67
2022/03/07 11:07:13;;;;;;;15.67;14.20;;;21.60;8.50;;;;;;5024565;28;20952;-64
2022/03/07 11:09:42;;;;;;;16.23;14.13;;;20.20;9.80;;;;;;5027074;28;21311;-64
2022/03/07 11:12:13;;;;;;;17.03;14.77;;;18.80;10.40;;;;;;5026661;28;20449;-64
2022/03/07 11:14:43;;;;;;;15.77;13.37;;;17.30;11.20;;;;;;5027070;28;20469;-64
2022/03/07 11:17:14;;;;;;;17.20;15.40;;;15.80;12.30;;;;;;5026393;28;20450;-64
2022/03/07 11:19:42;;;;;;;16.50;13.90;;;14.80;13.20;;;;;;5029939;28;20481;-66
2022/03/07 11:22:11;;;;;;;18.58;14.38;;;13.80;14.30;;;;;;5027330;28;20191;-63
2022/03/07 11:24:40;;;;;;;16.08;14.10;;;12.90;15.20;;;;;;5029756;28;20551;-65
2022/03/07 11:27:10;;;;;;;17.17;14.88;;;12.40;15.90;;;;;;5030062;28;20199;-63
2022/03/07 11:29:40;;;;;;;17.52;14.63;;;12.20;16.60;;;;;;5030111;28;20234;-63
2022/03/07 11:32:11;;;;;;;16.88;15.15;;;11.70;16.40;;;;;;5030827;28;20195;-64
2022/03/07 11:34:39;;;;;;;16.05;14.45;;;11.10;16.90;;;;;;5031096;28;20281;-65
2022/03/07 11:37:17;;;;;;;17.70;13.60;;;10.80;18.20;;;;;;5025871;28;20713;-64
2022/03/07 11:39:44;;;;;;;16.63;13.82;;;10.50;18.40;;;;;;5028366;28;20217;-64
2022/03/07 11:42:13;;;;;;;18.02;14.45;;;10.30;18.30;;;;;;5028648;28;20759;-64
2022/03/07 11:44:42;;;;;;;15.02;12.98;;;10.20;18.70;;;;;;5030203;28;20210;-64
2022/03/07 11:47:12;;;;;;;16.42;12.65;;;10.10;19.40;;;;;;5030680;28;20191;-64
2022/03/07 11:49:41;;;;;;;15.45;13.65;;;10.20;19.10;;;;;;5028073;28;20565;-64
2022/03/07 11:52:09;;;;;;;16.02;13.90;;;10.10;19.00;;;;;;5026662;28;20191;-64
2022/03/07 11:54:51;;;;;;;16.35;12.18;;;10.00;19.20;;;;;;5030784;28;20730;-63
2022/03/07 11:57:31;;;;;;;16.92;12.93;;;9.90;20.10;;;;;;5030331;28;20237;-63
2022/03/07 12:00:09;;;;;;;17.65;13.07;;;9.90;20.40;;;;;;5029761;28;20305;-70
2022/03/07 12:02:42;;;;;;;15.75;13.93;;;9.80;20.10;;;;;;5027498;28;20229;-63
2022/03/07 12:05:20;;;;;;;16.65;13.23;;;9.90;21.00;;;;;;5032308;28;20196;-64
2022/03/07 12:07:48;;;;;;;19.70;13.35;;;9.90;20.00;;;;;;5031385;28;20202;-63
2022/03/07 12:10:15;;;;;;;17.00;14.05;;;9.80;20.40;;;;;;5033563;28;20195;-64
2022/03/07 12:12:42;;;;;;;15.68;13.05;;;9.80;21.10;;;;;;5034172;28;20325;-64
2022/03/07 12:15:11;;;;;;;16.83;13.52;;;9.80;21.10;;;;;;5028997;28;20214;-63
2022/03/07 12:17:38;;;;;;;16.33;14.73;;;9.80;21.20;;;;;;5034876;28;20222;-63
2022/03/07 12:20:08;;;;;;;16.90;12.32;;;9.60;20.80;;;;;;5032495;28;20229;-63
2022/03/07 12:22:35;;;;;;;15.90;13.90;;;9.60;21.10;;;;;;5034035;28;20191;-64
2022/03/07 12:25:06;;;;;;;15.25;13.25;;;9.60;21.80;;;;;;5031327;28;20187;-64
2022/03/07 12:27:37;;;;;;;17.02;13.30;;;10.10;20.70;;;;;;5034065;28;20194;-64
2022/03/07 12:30:06;;;;;;;20.40;13.98;;;10.60;20.50;;;;;;5032252;28;20266;-64
2022/03/07 12:32:33;;;;;;;15.10;13.50;;;11.50;19.20;;;;;;5034078;28;20191;-64
2022/03/07 12:35:00;;;;;;;16.48;13.57;;;11.70;18.60;;;;;;5033089;28;20202;-63
2022/03/07 12:37:29;;;;;;;17.35;14.18;;;11.70;18.50;;;;;;5033675;28;20195;-64